Time;durP1;ratioP1;P1;durP2;ratioP2;P2;SDS_P1;SDS_P2;PMS_P1;PMS_P2;Temp;Humidity;BMP_temperature;BMP_pressure;BME280_temperature;BME280_humidity;BME280_pressure;Samples;Min_cycle;Max_cycle;Signal;HPM_P1;HPM_P2
2021/07/23 00:02:15;;;;;;;14.80;12.53;;;;;;;;;;4984095;28;20236;-86
2021/07/23 00:05:19;;;;;;;14.73;13.07;;;;;;;;;;4984479;28;20197;-87
2021/07/23 00:08:23;;;;;;;17.67;12.47;;;;;;;;;;4984870;28;20201;-86
2021/07/23 00:11:27;;;;;;;17.23;11.87;;;;;;;;;;4984432;28;20350;-87
2021/07/23 00:14:31;;;;;;;15.17;12.87;;;;;;;;;;4984764;28;20193;-87
2021/07/23 00:17:36;;;;;;;16.47;12.23;;;;;;;;;;4994592;28;20200;-86
2021/07/23 00:20:39;;;;;;;15.37;12.20;;;;;;;;;;5003496;28;20216;-87
2021/07/23 00:23:43;;;;;;;17.20;12.63;;;;;;;;;;4992363;28;20193;-87
2021/07/23 00:26:54;;;;;;;15.50;13.50;;;;;;;;;;5003688;28;20184;-86
2021/07/23 00:29:58;;;;;;;19.00;13.97;;;;;;;;;;5003847;28;20212;-86
2021/07/23 00:33:02;;;;;;;18.83;14.43;;;;;;;;;;5003576;28;20201;-86
2021/07/23 00:36:06;;;;;;;20.70;14.77;;;;;;;;;;4992600;28;20529;-87
2021/07/23 00:39:11;;;;;;;14.83;13.17;;;;;;;;;;4992378;28;20216;-86
2021/07/23 00:42:15;;;;;;;16.83;14.53;;;;;;;;;;5003458;28;20228;-86
2021/07/23 00:45:20;;;;;;;15.83;13.40;;;;;;;;;;4992550;28;20545;-86
2021/07/23 00:48:28;;;;;;;16.47;12.57;;;;;;;;;;5003133;28;20208;-86
2021/07/23 00:51:32;;;;;;;16.63;12.80;;;;;;;;;;5003466;28;20220;-86
2021/07/23 00:54:38;;;;;;;18.03;13.67;;;;;;;;;;5003489;28;20205;-87
2021/07/23 00:57:43;;;;;;;16.73;13.57;;;;;;;;;;4992129;28;20188;-86
2021/07/23 01:00:47;;;;;;;19.00;12.07;;;;;;;;;;5002583;28;20235;-86
2021/07/23 01:03:58;;;;;;;14.87;13.07;;;;;;;;;;4993320;28;20196;-87
2021/07/23 01:07:05;;;;;;;18.83;13.80;;;;;;;;;;5003340;28;20300;-87
2021/07/23 01:10:09;;;;;;;16.47;13.60;;;;;;;;;;5003298;28;20254;-87
2021/07/23 01:13:33;;;;;;;15.83;13.13;;;;;;;;;;5005823;28;20639;-86
2021/07/23 01:16:38;;;;;;;19.33;13.43;;;;;;;;;;5002900;28;20623;-87
2021/07/23 01:19:56;;;;;;;17.63;13.10;;;;;;;;;;4991662;28;20233;-87
2021/07/23 01:23:02;;;;;;;18.30;13.57;;;;;;;;;;4991987;28;20193;-86
2021/07/23 01:26:08;;;;;;;17.57;13.43;;;;;;;;;;4991804;28;20216;-86
2021/07/23 01:29:12;;;;;;;14.83;12.23;;;;;;;;;;4991760;28;20216;-86
2021/07/23 01:32:16;;;;;;;17.90;14.20;;;;;;;;;;5053698;23;20238;-86
2021/07/23 01:35:22;;;;;;;15.43;12.97;;;;;;;;;;5058310;28;20211;-86
2021/07/23 01:38:28;;;;;;;15.80;13.67;;;;;;;;;;5047528;28;20672;-86
2021/07/23 01:41:33;;;;;;;16.93;13.83;;;;;;;;;;5046175;28;20222;-86
2021/07/23 01:44:38;;;;;;;16.53;13.90;;;;;;;;;;5062228;28;20206;-86
2021/07/23 01:47:43;;;;;;;17.70;13.30;;;;;;;;;;5065138;28;20206;-86
2021/07/23 01:50:47;;;;;;;16.07;13.47;;;;;;;;;;5045433;28;20198;-86
2021/07/23 01:53:51;;;;;;;17.67;13.17;;;;;;;;;;5033594;28;20183;-86
2021/07/23 01:56:55;;;;;;;17.53;14.27;;;;;;;;;;5056433;28;20198;-86
2021/07/23 02:00:00;;;;;;;17.37;13.90;;;;;;;;;;5047446;28;20237;-86
2021/07/23 02:03:05;;;;;;;21.30;12.77;;;;;;;;;;5045261;28;20302;-86
2021/07/23 02:06:12;;;;;;;19.53;13.97;;;;;;;;;;5040459;28;20676;-86
2021/07/23 02:09:17;;;;;;;17.73;13.60;;;;;;;;;;5051669;28;20186;-86
2021/07/23 02:12:30;;;;;;;16.93;13.30;;;;;;;;;;5024186;28;20219;-86
2021/07/23 02:15:45;;;;;;;19.93;14.37;;;;;;;;;;5035394;28;20191;-86
2021/07/23 02:18:54;;;;;;;17.40;13.30;;;;;;;;;;5059674;28;20206;-86
2021/07/23 02:22:16;;;;;;;17.27;14.37;;;;;;;;;;5024797;28;20232;-86
2021/07/23 02:25:20;;;;;;;18.03;13.87;;;;;;;;;;5036277;28;20188;-87
2021/07/23 02:28:26;;;;;;;18.47;13.63;;;;;;;;;;5018759;28;20196;-86
2021/07/23 02:31:33;;;;;;;16.27;13.67;;;;;;;;;;5039873;28;20230;-86
2021/07/23 02:34:44;;;;;;;16.37;13.37;;;;;;;;;;5040949;28;20196;-86
2021/07/23 02:37:50;;;;;;;16.10;13.00;;;;;;;;;;5036078;28;20188;-86
2021/07/23 02:40:56;;;;;;;18.73;13.57;;;;;;;;;;5039987;28;20223;-86
2021/07/23 02:44:00;;;;;;;17.50;14.97;;;;;;;;;;5052340;28;20207;-86
2021/07/23 02:47:05;;;;;;;18.47;14.27;;;;;;;;;;5052340;28;20190;-86
2021/07/23 02:50:11;;;;;;;19.63;14.20;;;;;;;;;;5050972;28;20186;-86
2021/07/23 02:53:23;;;;;;;18.33;14.87;;;;;;;;;;5048891;28;20226;-86
2021/07/23 02:56:28;;;;;;;18.77;13.93;;;;;;;;;;5034174;28;20207;-87
2021/07/23 02:59:36;;;;;;;18.40;13.73;;;;;;;;;;5013171;28;20227;-86
2021/07/23 03:02:40;;;;;;;16.03;13.57;;;;;;;;;;5018282;28;20227;-86
2021/07/23 03:05:44;;;;;;;18.47;13.77;;;;;;;;;;5013413;28;20200;-86
2021/07/23 03:08:58;;;;;;;18.87;13.60;;;;;;;;;;5040983;28;20548;-86
2021/07/23 03:12:03;;;;;;;17.67;13.27;;;;;;;;;;5050443;28;20234;-86
2021/07/23 03:15:12;;;;;;;22.67;15.17;;;;;;;;;;5051648;28;20546;-86
2021/07/23 03:18:18;;;;;;;18.37;14.27;;;;;;;;;;5032440;28;20191;-86
2021/07/23 03:21:23;;;;;;;16.67;13.97;;;;;;;;;;5043561;28;20238;-86
2021/07/23 03:24:29;;;;;;;19.53;14.40;;;;;;;;;;5044625;28;20691;-86
2021/07/23 03:27:37;;;;;;;17.03;13.83;;;;;;;;;;5063054;28;20218;-86
2021/07/23 03:30:49;;;;;;;16.33;14.47;;;;;;;;;;5062790;28;20199;-86
2021/07/23 03:33:55;;;;;;;19.47;15.17;;;;;;;;;;5056627;28;20199;-86
2021/07/23 03:37:17;;;;;;;18.03;14.30;;;;;;;;;;5057493;28;20199;-86
2021/07/23 03:40:26;;;;;;;19.60;14.97;;;;;;;;;;5012630;28;20220;-86
2021/07/23 03:43:33;;;;;;;19.97;14.00;;;;;;;;;;5015758;28;20572;-86
2021/07/23 03:46:42;;;;;;;15.20;13.60;;;;;;;;;;5052498;28;20649;-86
2021/07/23 03:49:47;;;;;;;18.07;13.53;;;;;;;;;;5030375;28;20204;-86
2021/07/23 03:52:52;;;;;;;17.37;13.33;;;;;;;;;;5025050;28;20223;-87
2021/07/23 03:56:15;;;;;;;22.67;13.77;;;;;;;;;;5043917;28;20195;-86
2021/07/23 03:59:22;;;;;;;19.80;14.33;;;;;;;;;;5051296;28;20194;-87
2021/07/23 04:02:30;;;;;;;18.00;14.43;;;;;;;;;;5027459;28;20242;-86
2021/07/23 04:05:34;;;;;;;17.23;14.30;;;;;;;;;;5059886;28;20210;-86
2021/07/23 04:08:43;;;;;;;18.07;14.17;;;;;;;;;;5049381;28;20210;-86
2021/07/23 04:11:52;;;;;;;17.73;14.73;;;;;;;;;;5041834;28;20227;-86
2021/07/23 04:15:04;;;;;;;19.50;15.17;;;;;;;;;;5054444;28;20210;-88
2021/07/23 04:18:10;;;;;;;19.80;14.30;;;;;;;;;;5029214;28;20196;-88
2021/07/23 04:21:20;;;;;;;16.90;13.57;;;;;;;;;;5033482;28;20211;-87
2021/07/23 04:24:24;;;;;;;17.73;14.50;;;;;;;;;;5019251;28;20207;-88
2021/07/23 04:27:30;;;;;;;20.90;15.67;;;;;;;;;;5022571;28;20670;-88
2021/07/23 04:30:57;;;;;;;19.17;14.30;;;;;;;;;;5033883;28;20192;-87
2021/07/23 04:34:08;;;;;;;16.40;13.87;;;;;;;;;;5019215;28;20206;-87
2021/07/23 04:37:15;;;;;;;24.87;13.90;;;;;;;;;;5053400;28;20203;-88
2021/07/23 04:40:48;;;;;;;19.23;13.80;;;;;;;;;;5053089;28;20227;-87
2021/07/23 04:44:01;;;;;;;23.00;14.80;;;;;;;;;;5029564;28;20194;-87
2021/07/23 04:47:06;;;;;;;18.23;13.60;;;;;;;;;;5062121;28;20187;-87
2021/07/23 04:50:15;;;;;;;17.03;13.80;;;;;;;;;;5051276;28;20657;-87
2021/07/23 04:53:38;;;;;;;16.97;14.37;;;;;;;;;;5063524;28;20215;-87
2021/07/23 04:57:00;;;;;;;19.90;12.77;;;;;;;;;;5072447;28;20265;-88
2021/07/23 05:00:07;;;;;;;18.23;13.83;;;;;;;;;;5059603;28;20594;-87
2021/07/23 05:03:12;;;;;;;19.63;14.63;;;;;;;;;;5049411;28;20238;-87
2021/07/23 05:06:17;;;;;;;19.47;14.60;;;;;;;;;;5021894;28;20196;-87
2021/07/23 05:09:22;;;;;;;19.57;15.07;;;;;;;;;;5013160;28;20199;-87
2021/07/23 05:12:26;;;;;;;21.43;13.87;;;;;;;;;;5021624;28;20227;-87
2021/07/23 05:15:31;;;;;;;21.40;15.23;;;;;;;;;;5021968;28;20179;-87
2021/07/23 05:18:39;;;;;;;21.63;14.63;;;;;;;;;;5016186;28;20194;-87
2021/07/23 05:21:45;;;;;;;20.27;13.70;;;;;;;;;;5061203;28;20593;-87
2021/07/23 05:24:49;;;;;;;21.97;14.47;;;;;;;;;;5046276;28;20194;-88
2021/07/23 05:27:55;;;;;;;16.47;13.37;;;;;;;;;;5040331;28;20191;-87
2021/07/23 05:31:00;;;;;;;18.37;13.77;;;;;;;;;;5048525;28;20665;-87
2021/07/23 05:34:04;;;;;;;27.83;14.63;;;;;;;;;;5032255;28;20208;-88
2021/07/23 05:37:08;;;;;;;20.53;14.00;;;;;;;;;;5036735;28;20198;-87
2021/07/23 05:40:12;;;;;;;19.17;14.07;;;;;;;;;;5023171;28;20219;-88
2021/07/23 05:43:17;;;;;;;22.47;13.80;;;;;;;;;;5034667;28;20222;-88
2021/07/23 05:46:21;;;;;;;18.57;13.20;;;;;;;;;;5034816;28;20199;-88
2021/07/23 05:49:26;;;;;;;20.00;13.97;;;;;;;;;;5033679;28;20186;-88
2021/07/23 05:52:30;;;;;;;25.63;13.27;;;;;;;;;;5059173;28;20569;-88
2021/07/23 05:55:34;;;;;;;41.23;15.07;;;;;;;;;;5041258;28;20575;-88
2021/07/23 05:58:38;;;;;;;25.00;14.43;;;;;;;;;;5059834;28;20561;-88
2021/07/23 06:01:42;;;;;;;19.00;12.53;;;;;;;;;;5020814;28;20235;-89
2021/07/23 06:04:46;;;;;;;33.43;14.57;;;;;;;;;;5032774;28;20192;-89
2021/07/23 06:07:50;;;;;;;25.37;13.57;;;;;;;;;;5033894;28;20202;-87
2021/07/23 06:10:54;;;;;;;40.43;14.70;;;;;;;;;;5033992;28;20182;-88
2021/07/23 06:13:59;;;;;;;34.93;13.93;;;;;;;;;;5060581;28;20565;-88
2021/07/23 06:17:03;;;;;;;35.00;13.77;;;;;;;;;;5049725;28;20191;-88
2021/07/23 06:20:08;;;;;;;20.57;13.70;;;;;;;;;;5060028;28;20199;-88
2021/07/23 06:23:12;;;;;;;20.47;12.17;;;;;;;;;;5020859;28;20235;-88
2021/07/23 06:26:16;;;;;;;28.03;15.00;;;;;;;;;;5065490;28;20206;-88
2021/07/23 06:29:20;;;;;;;31.83;14.60;;;;;;;;;;5049325;28;20187;-88
2021/07/23 06:32:26;;;;;;;21.97;14.07;;;;;;;;;;5024715;28;20251;-88
2021/07/23 06:35:32;;;;;;;20.97;14.47;;;;;;;;;;5047861;28;20210;-88
2021/07/23 06:38:36;;;;;;;25.00;13.63;;;;;;;;;;5052404;28;20206;-88
2021/07/23 06:41:40;;;;;;;20.23;14.37;;;;;;;;;;5050809;28;20238;-88
2021/07/23 06:44:44;;;;;;;22.83;14.83;;;;;;;;;;5075624;28;20195;-89
2021/07/23 06:47:49;;;;;;;22.47;15.53;;;;;;;;;;5039758;28;20203;-88
2021/07/23 06:50:53;;;;;;;18.50;14.27;;;;;;;;;;5022452;28;20192;-88
2021/07/23 06:53:59;;;;;;;24.93;15.63;;;;;;;;;;5024487;28;20203;-88
2021/07/23 06:57:06;;;;;;;25.27;14.67;;;;;;;;;;5024055;28;20185;-89
2021/07/23 07:00:10;;;;;;;26.07;14.97;;;;;;;;;;5020646;28;20190;-89
2021/07/23 07:03:15;;;;;;;20.00;14.70;;;;;;;;;;5052690;28;20215;-89
2021/07/23 07:06:19;;;;;;;22.10;13.70;;;;;;;;;;5052433;28;20206;-89
2021/07/23 07:09:27;;;;;;;19.23;13.20;;;;;;;;;;5050210;28;20195;-88
2021/07/23 07:12:31;;;;;;;19.00;13.17;;;;;;;;;;5034719;28;20226;-88
2021/07/23 07:15:35;;;;;;;21.43;13.77;;;;;;;;;;5061936;28;20202;-88
2021/07/23 07:18:41;;;;;;;21.53;13.40;;;;;;;;;;5063378;28;20222;-88
2021/07/23 07:21:48;;;;;;;22.90;13.40;;;;;;;;;;5051700;28;20238;-88
2021/07/23 07:24:53;;;;;;;21.57;13.90;;;;;;;;;;5063804;28;20202;-88
2021/07/23 07:27:58;;;;;;;26.20;13.70;;;;;;;;;;5052106;28;20187;-88
2021/07/23 07:31:02;;;;;;;18.50;13.13;;;;;;;;;;5052332;28;20258;-88
2021/07/23 07:34:07;;;;;;;21.07;13.87;;;;;;;;;;5034832;23;20235;-86
2021/07/23 07:37:11;;;;;;;17.67;13.60;;;;;;;;;;5004444;28;20184;-86
2021/07/23 07:40:15;;;;;;;15.50;12.07;;;;;;;;;;5003955;28;20185;-86
2021/07/23 07:43:19;;;;;;;13.37;9.90;;;;;;;;;;5003439;28;20232;-86
2021/07/23 07:46:23;;;;;;;13.23;10.53;;;;;;;;;;4992934;28;20178;-86
2021/07/23 07:49:27;;;;;;;13.50;11.43;;;;;;;;;;5004294;28;20186;-86
2021/07/23 07:52:32;;;;;;;11.57;8.90;;;;;;;;;;4992921;28;20604;-86
2021/07/23 07:55:36;;;;;;;11.90;9.43;;;;;;;;;;5004184;28;20177;-86
2021/07/23 07:58:40;;;;;;;13.97;9.33;;;;;;;;;;4992447;28;20625;-86
2021/07/23 08:01:45;;;;;;;13.03;9.07;;;;;;;;;;4992309;28;20562;-85
2021/07/23 08:04:49;;;;;;;13.73;8.70;;;;;;;;;;4992367;28;20182;-86
2021/07/23 08:07:57;;;;;;;11.77;8.63;;;;;;;;;;4992609;28;20517;-86
2021/07/23 08:11:01;;;;;;;11.95;8.60;;;;;;;;;;5014719;28;20171;-86
2021/07/23 08:14:05;;;;;;;15.30;8.30;;;;;;;;;;5014361;28;20687;-86
2021/07/23 08:17:09;;;;;;;13.55;9.25;;;;;;;;;;4993996;28;20191;-86
2021/07/23 08:20:14;;;;;;;10.27;8.05;;;;;;;;;;5014346;28;20200;-86
2021/07/23 08:23:22;;;;;;;10.27;8.00;;;;;;;;;;4991666;28;20212;-86
2021/07/23 08:26:26;;;;;;;11.20;8.00;;;;;;;;;;4992231;28;20508;-86
2021/07/23 08:29:30;;;;;;;8.00;7.20;;;;;;;;;;4991685;28;20199;-86
2021/07/23 08:32:37;;;;;;;10.02;8.20;;;;;;;;;;5002979;28;20227;-87
2021/07/23 08:35:41;;;;;;;10.57;7.50;;;;;;;;;;4991613;28;20180;-88
2021/07/23 08:38:45;;;;;;;10.15;8.02;;;;;;;;;;4991811;28;20647;-88
2021/07/23 08:41:50;;;;;;;11.63;8.18;;;;;;;;;;5002738;28;20211;-88
2021/07/23 08:45:00;;;;;;;11.15;8.25;;;;;;;;;;4991867;28;20184;-88
2021/07/23 08:48:05;;;;;;;10.93;9.02;;;;;;;;;;4991412;28;20182;-88
2021/07/23 08:51:10;;;;;;;8.77;7.70;;;;;;;;;;4991524;28;20190;-88
2021/07/23 08:54:14;;;;;;;11.82;8.00;;;;;;;;;;4990852;28;20221;-88
2021/07/23 08:57:18;;;;;;;14.30;8.02;;;;;;;;;;5001649;28;20205;-88
2021/07/23 09:00:22;;;;;;;11.18;8.27;;;;;;;;;;4991172;28;20346;-87
2021/07/23 09:03:31;;;;;;;10.80;8.00;;;;;;;;;;4991324;28;20213;-87
2021/07/23 09:06:35;;;;;;;8.75;7.88;;;;;;;;;;4991033;28;20198;-89
2021/07/23 09:09:40;;;;;;;9.95;7.97;;;;;;;;;;4991500;28;20182;-87
2021/07/23 09:12:47;;;;;;;14.15;8.43;;;;;;;;;;4991150;28;20217;-88
2021/07/23 09:15:52;;;;;;;10.00;8.20;;;;;;;;;;5002980;28;20181;-88
2021/07/23 09:19:06;;;;;;;10.82;8.13;;;;;;;;;;5014139;28;20525;-87
2021/07/23 09:22:10;;;;;;;8.35;7.47;;;;;;;;;;5001960;28;20553;-88
2021/07/23 09:25:15;;;;;;;7.93;7.03;;;;;;;;;;5007063;28;20539;-88
2021/07/23 09:28:22;;;;;;;8.60;7.45;;;;;;;;;;5001342;28;20190;-86
2021/07/23 09:31:30;;;;;;;9.48;6.88;;;;;;;;;;5002118;28;20177;-86
2021/07/23 09:34:34;;;;;;;8.25;7.15;;;;;;;;;;4990689;28;20225;-85
2021/07/23 09:37:58;;;;;;;8.43;6.97;;;;;;;;;;5013181;28;20189;-86
2021/07/23 09:41:02;;;;;;;12.23;8.10;;;;;;;;;;4990910;28;20207;-85
2021/07/23 09:44:11;;;;;;;10.25;7.50;;;;;;;;;;4989487;28;20209;-86
2021/07/23 09:47:24;;;;;;;8.38;6.95;;;;;;;;;;5013879;28;20185;-86
2021/07/23 09:50:28;;;;;;;10.32;7.65;;;;;;;;;;4982577;28;20195;-85
2021/07/23 09:53:34;;;;;;;21.48;7.78;;;;;;;;;;5000950;28;20218;-86
2021/07/23 09:56:39;;;;;;;8.00;6.93;;;;;;;;;;4990391;28;20193;-86
2021/07/23 10:00:05;;;;;;;18.05;8.13;;;;;;;;;;4999359;28;20189;-87
2021/07/23 10:03:13;;;;;;;8.38;6.97;;;;;;;;;;4998049;28;20230;-87
2021/07/23 10:06:24;;;;;;;12.32;7.55;;;;;;;;;;4989196;28;20201;-87
2021/07/23 10:09:30;;;;;;;12.50;8.43;;;;;;;;;;5012953;28;20197;-87
2021/07/23 10:12:37;;;;;;;9.98;7.57;;;;;;;;;;5024509;28;20217;-83
2021/07/23 10:15:41;;;;;;;10.02;7.35;;;;;;;;;;5027507;28;20185;-87
2021/07/23 10:18:46;;;;;;;11.52;7.90;;;;;;;;;;5021991;28;20211;-86
2021/07/23 10:21:56;;;;;;;9.95;7.72;;;;;;;;;;4990554;28;20221;-89
2021/07/23 10:25:01;;;;;;;9.32;7.85;;;;;;;;;;4990349;28;20190;-86
2021/07/23 10:28:05;;;;;;;8.68;7.57;;;;;;;;;;5012752;28;20194;-87
2021/07/23 10:31:22;;;;;;;11.20;8.13;;;;;;;;;;4976965;28;20193;-86
2021/07/23 10:34:30;;;;;;;14.52;8.82;;;;;;;;;;4990297;28;20229;-87
2021/07/23 10:37:43;;;;;;;10.43;8.20;;;;;;;;;;4982294;28;20191;-87
2021/07/23 10:40:47;;;;;;;8.45;7.65;;;;;;;;;;4993324;28;20183;-86
2021/07/23 10:43:51;;;;;;;8.63;7.82;;;;;;;;;;5006503;28;20217;-87
2021/07/23 10:46:56;;;;;;;11.43;8.43;;;;;;;;;;5001595;28;20209;-87
2021/07/23 10:50:01;;;;;;;15.98;8.77;;;;;;;;;;5001541;28;20209;-88
2021/07/23 10:53:35;;;;;;;9.10;8.18;;;;;;;;;;4990471;28;20700;-87
2021/07/23 10:57:01;;;;;;;10.00;7.97;;;;;;;;;;5012256;28;20185;-87
2021/07/23 11:00:06;;;;;;;14.95;8.30;;;;;;;;;;5008014;28;20198;-86
2021/07/23 11:03:37;;;;;;;14.10;8.80;;;;;;;;;;5012617;28;20230;-87
2021/07/23 11:06:41;;;;;;;13.63;8.13;;;;;;;;;;5001146;28;20186;-87
2021/07/23 11:09:45;;;;;;;8.68;7.80;;;;;;;;;;4990190;28;20189;-87
2021/07/23 11:12:49;;;;;;;12.88;9.18;;;;;;;;;;4996615;28;20239;-86
2021/07/23 11:16:10;;;;;;;14.00;8.23;;;;;;;;;;4990325;28;20191;-86
2021/07/23 11:19:19;;;;;;;11.10;8.80;;;;;;;;;;4982314;28;20186;-87
2021/07/23 11:22:28;;;;;;;11.73;8.13;;;;;;;;;;4981776;28;20226;-88
2021/07/23 11:25:33;;;;;;;10.77;8.20;;;;;;;;;;4988467;28;20205;-87
2021/07/23 11:28:51;;;;;;;19.60;8.80;;;;;;;;;;5003147;28;20186;-86
2021/07/23 11:32:07;;;;;;;10.05;8.20;;;;;;;;;;4992539;28;20190;-86
2021/07/23 11:35:11;;;;;;;9.32;8.38;;;;;;;;;;5015468;28;20186;-88
2021/07/23 11:38:17;;;;;;;12.48;8.20;;;;;;;;;;4984784;28;20206;-87
2021/07/23 11:41:20;;;;;;;13.15;8.93;;;;;;;;;;4997463;28;20202;-86
2021/07/23 11:44:25;;;;;;;11.45;8.55;;;;;;;;;;5014951;28;20210;-86
2021/07/23 11:47:30;;;;;;;12.20;8.48;;;;;;;;;;5003667;28;20181;-85
2021/07/23 11:50:34;;;;;;;13.45;8.27;;;;;;;;;;5015241;28;20181;-86
2021/07/23 11:53:41;;;;;;;11.23;7.65;;;;;;;;;;5014632;28;20221;-86
2021/07/23 11:56:45;;;;;;;9.63;8.63;;;;;;;;;;5026426;28;20186;-86
2021/07/23 11:59:50;;;;;;;12.73;8.77;;;;;;;;;;5014570;28;20174;-86
2021/07/23 12:02:55;;;;;;;14.00;8.93;;;;;;;;;;5003482;28;20229;-86
2021/07/23 12:06:09;;;;;;;11.95;8.77;;;;;;;;;;5003448;28;20194;-86
2021/07/23 12:09:13;;;;;;;10.98;8.95;;;;;;;;;;5026074;28;20190;-85
2021/07/23 12:12:17;;;;;;;17.38;9.07;;;;;;;;;;5025664;28;20197;-86
2021/07/23 12:15:21;;;;;;;19.15;9.20;;;;;;;;;;5026388;28;20593;-85
2021/07/23 12:18:25;;;;;;;16.40;9.15;;;;;;;;;;5025863;28;20535;-85
2021/07/23 12:21:29;;;;;;;23.10;8.98;;;;;;;;;;5025801;28;20188;-85
2021/07/23 12:24:33;;;;;;;18.92;9.30;;;;;;;;;;5003366;28;20219;-86
2021/07/23 12:27:37;;;;;;;11.75;8.20;;;;;;;;;;5014631;28;20193;-86
2021/07/23 12:30:44;;;;;;;11.82;8.60;;;;;;;;;;5003302;28;20625;-86
2021/07/23 12:34:19;;;;;;;14.43;9.07;;;;;;;;;;5002624;28;20217;-86
2021/07/23 12:37:23;;;;;;;16.80;8.75;;;;;;;;;;5025821;28;20186;-86
2021/07/23 12:40:47;;;;;;;11.48;8.02;;;;;;;;;;5014181;28;20197;-86
2021/07/23 12:44:13;;;;;;;10.43;8.25;;;;;;;;;;5024959;28;20237;-86
2021/07/23 12:47:25;;;;;;;9.98;8.10;;;;;;;;;;5014060;28;20189;-86
2021/07/23 12:50:29;;;;;;;12.43;7.60;;;;;;;;;;5025343;28;20218;-86
2021/07/23 12:53:35;;;;;;;8.85;7.95;;;;;;;;;;5025067;28;20217;-86
2021/07/23 12:56:42;;;;;;;11.13;8.82;;;;;;;;;;5002436;28;20641;-86
2021/07/23 12:59:51;;;;;;;12.30;8.43;;;;;;;;;;5014031;28;20513;-86
2021/07/23 13:02:56;;;;;;;9.20;8.10;;;;;;;;;;5002176;28;20233;-86
2021/07/23 13:06:00;;;;;;;13.15;7.72;;;;;;;;;;5002458;28;20186;-86
2021/07/23 13:09:04;;;;;;;12.73;8.27;;;;;;;;;;5014058;28;20628;-86
2021/07/23 13:12:12;;;;;;;13.85;8.48;;;;;;;;;;5002712;28;20185;-86
2021/07/23 13:15:20;;;;;;;10.45;7.80;;;;;;;;;;4991124;28;20190;-86
2021/07/23 13:18:24;;;;;;;38.13;9.75;;;;;;;;;;5002619;28;20186;-86
2021/07/23 13:21:28;;;;;;;14.10;8.60;;;;;;;;;;5013474;28;20197;-86
2021/07/23 13:24:33;;;;;;;28.00;12.45;;;;;;;;;;5012889;28;20229;-86
2021/07/23 13:27:38;;;;;;;14.15;8.27;;;;;;;;;;4991047;28;20185;-86
2021/07/23 13:30:44;;;;;;;10.98;7.70;;;;;;;;;;5024698;28;20182;-86
2021/07/23 13:33:51;;;;;;;12.38;8.35;;;;;;;;;;5061382;23;20227;-87
2021/07/23 13:37:04;;;;;;;10.40;8.27;;;;;;;;;;5061374;28;20642;-87
2021/07/23 13:40:12;;;;;;;10.52;8.30;;;;;;;;;;5061793;28;20622;-87
2021/07/23 13:43:17;;;;;;;10.18;7.85;;;;;;;;;;5053687;28;20227;-87
2021/07/23 13:46:22;;;;;;;8.95;8.05;;;;;;;;;;5065553;28;20184;-87
2021/07/23 13:49:25;;;;;;;9.45;7.95;;;;;;;;;;5065694;28;20180;-87
2021/07/23 13:52:29;;;;;;;8.98;7.70;;;;;;;;;;5076595;28;20195;-87
2021/07/23 13:55:33;;;;;;;15.68;8.07;;;;;;;;;;5076910;28;20188;-87
2021/07/23 13:58:38;;;;;;;12.75;7.95;;;;;;;;;;5053774;28;20179;-86
2021/07/23 14:01:42;;;;;;;9.00;8.10;;;;;;;;;;5065371;28;20175;-87
2021/07/23 14:04:48;;;;;;;11.90;7.88;;;;;;;;;;5064753;28;20231;-87
2021/07/23 14:07:53;;;;;;;9.18;7.95;;;;;;;;;;5053500;28;20176;-87
2021/07/23 14:10:59;;;;;;;12.68;8.20;;;;;;;;;;5053949;28;20184;-87
2021/07/23 14:14:03;;;;;;;9.73;7.60;;;;;;;;;;5053662;28;20215;-86
2021/07/23 14:17:07;;;;;;;10.00;7.47;;;;;;;;;;5054028;28;20180;-86
2021/07/23 14:20:11;;;;;;;8.75;7.90;;;;;;;;;;5053699;28;20176;-87
2021/07/23 14:23:15;;;;;;;10.05;8.05;;;;;;;;;;5064397;28;20227;-86
2021/07/23 14:26:19;;;;;;;9.13;8.00;;;;;;;;;;5053569;28;20179;-87
2021/07/23 14:29:23;;;;;;;10.00;7.80;;;;;;;;;;5065350;28;20188;-87
2021/07/23 14:32:27;;;;;;;8.50;7.55;;;;;;;;;;5065724;28;20176;-87
2021/07/23 14:35:31;;;;;;;10.55;8.63;;;;;;;;;;5066017;28;20172;-87
2021/07/23 14:38:36;;;;;;;8.52;7.65;;;;;;;;;;5053950;28;20180;-87
2021/07/23 14:41:40;;;;;;;8.93;7.65;;;;;;;;;;5053894;28;20184;-86
2021/07/23 14:44:44;;;;;;;10.32;8.13;;;;;;;;;;5052897;28;20713;-87
2021/07/23 14:47:48;;;;;;;9.68;8.38;;;;;;;;;;5052875;28;20183;-87
2021/07/23 14:50:52;;;;;;;9.38;8.25;;;;;;;;;;5053119;28;20179;-87
2021/07/23 14:53:56;;;;;;;10.57;8.05;;;;;;;;;;5052661;28;20211;-87
2021/07/23 14:57:01;;;;;;;14.75;8.18;;;;;;;;;;5053235;28;20183;-87
2021/07/23 15:00:05;;;;;;;8.75;7.85;;;;;;;;;;5052929;28;20184;-87
2021/07/23 15:03:10;;;;;;;8.30;7.32;;;;;;;;;;5025894;28;20225;-88
2021/07/23 15:06:17;;;;;;;10.00;7.95;;;;;;;;;;5024098;28;20193;-88
2021/07/23 15:09:22;;;;;;;8.93;7.60;;;;;;;;;;5024147;28;20177;-89
2021/07/23 15:12:26;;;;;;;10.88;8.18;;;;;;;;;;5028049;28;20189;-88
2021/07/23 15:15:37;;;;;;;10.73;8.52;;;;;;;;;;5043921;28;20173;-89
2021/07/23 15:18:45;;;;;;;13.10;7.38;;;;;;;;;;5032327;28;20181;-87
2021/07/23 15:21:56;;;;;;;11.07;7.68;;;;;;;;;;5035245;28;20184;-89
2021/07/23 15:25:01;;;;;;;12.50;7.93;;;;;;;;;;5023921;28;20225;-88
2021/07/23 15:28:05;;;;;;;11.20;8.13;;;;;;;;;;5022879;28;20683;-88
2021/07/23 15:31:09;;;;;;;8.68;7.78;;;;;;;;;;5039084;28;20196;-88
2021/07/23 15:34:13;;;;;;;8.50;7.35;;;;;;;;;;5032926;28;20228;-89
2021/07/23 15:37:17;;;;;;;9.60;7.97;;;;;;;;;;5035157;28;20185;-88
2021/07/23 15:40:21;;;;;;;10.90;8.23;;;;;;;;;;5013422;28;20196;-89
2021/07/23 15:43:26;;;;;;;10.80;7.63;;;;;;;;;;5018438;28;20224;-88
2021/07/23 15:46:30;;;;;;;11.70;7.95;;;;;;;;;;5026699;28;20197;-88
2021/07/23 15:49:35;;;;;;;12.32;8.18;;;;;;;;;;5012394;28;20189;-88
2021/07/23 15:52:39;;;;;;;12.23;8.15;;;;;;;;;;5023533;28;20174;-89
2021/07/23 15:55:43;;;;;;;26.80;7.93;;;;;;;;;;5023591;28;20189;-90
2021/07/23 15:58:48;;;;;;;13.18;8.52;;;;;;;;;;5023182;28;20182;-89
2021/07/23 16:01:52;;;;;;;11.00;8.02;;;;;;;;;;5034861;28;20181;-89
2021/07/23 16:04:57;;;;;;;11.40;7.72;;;;;;;;;;5020655;28;20217;-89
2021/07/23 16:08:01;;;;;;;9.00;8.10;;;;;;;;;;5042103;28;20185;-90
2021/07/23 16:11:05;;;;;;;14.10;7.90;;;;;;;;;;5024754;28;20197;-88
2021/07/23 16:14:10;;;;;;;9.63;7.43;;;;;;;;;;5031111;28;20224;-88
2021/07/23 16:17:14;;;;;;;10.60;7.72;;;;;;;;;;5031386;28;20508;-89
2021/07/23 16:20:18;;;;;;;13.63;8.80;;;;;;;;;;5017398;28;20204;-86
2021/07/23 16:23:22;;;;;;;664.67;496.90;;;;;;;;;;5022685;28;20224;-89
2021/07/23 16:26:26;;;;;;;21.58;17.65;;;;;;;;;;5032530;28;20202;-89
2021/07/23 16:29:30;;;;;;;20.60;13.38;;;;;;;;;;5053648;28;20184;-88
2021/07/23 16:32:34;;;;;;;20.08;14.85;;;;;;;;;;5025198;28;20746;-88
2021/07/23 16:35:38;;;;;;;9.40;7.93;;;;;;;;;;5026300;28;20540;-88
2021/07/23 16:38:42;;;;;;;10.05;8.18;;;;;;;;;;5033395;28;20191;-88
2021/07/23 16:41:46;;;;;;;13.10;8.02;;;;;;;;;;5015773;28;20196;-88
2021/07/23 16:44:53;;;;;;;12.20;8.02;;;;;;;;;;5041769;28;20211;-88
2021/07/23 16:47:58;;;;;;;9.57;8.15;;;;;;;;;;5041330;28;20190;-88
2021/07/23 16:51:02;;;;;;;13.60;7.93;;;;;;;;;;5030800;28;20184;-88
2021/07/23 16:54:09;;;;;;;14.85;10.63;;;;;;;;;;5041636;28;20235;-88
2021/07/23 16:57:13;;;;;;;11.77;8.25;;;;;;;;;;5052538;28;20198;-88
2021/07/23 17:00:17;;;;;;;10.50;8.27;;;;;;;;;;5010533;28;20519;-88
2021/07/23 17:03:22;;;;;;;11.85;8.40;;;;;;;;;;5031803;28;20751;-91
2021/07/23 17:06:30;;;;;;;8.55;7.25;;;;;;;;;;5030243;28;20205;-92
2021/07/23 17:09:35;;;;;;;88.25;59.20;;;;;;;;;;5021879;28;20190;-92
2021/07/23 17:12:39;;;;;;;11.57;9.07;;;;;;;;;;5021943;28;20188;-91
2021/07/23 17:15:43;;;;;;;25.02;15.80;;;;;;;;;;5013948;28;20657;-91
2021/07/23 17:18:47;;;;;;;441.27;384.02;;;;;;;;;;5029440;28;20211;-91
2021/07/23 17:21:50;;;;;;;50.58;38.70;;;;;;;;;;5041627;28;20190;-91
2021/07/23 17:24:55;;;;;;;190.15;159.88;;;;;;;;;;5024880;28;20232;-91
2021/07/23 17:27:59;;;;;;;73.55;52.92;;;;;;;;;;5022778;28;20544;-91
2021/07/23 17:31:03;;;;;;;100.32;56.85;;;;;;;;;;5021247;28;20670;-91
2021/07/23 17:34:08;;;;;;;32.03;25.67;;;;;;;;;;5021522;28;20236;-91
2021/07/23 17:37:13;;;;;;;254.13;205.05;;;;;;;;;;5021321;28;20204;-91
2021/07/23 17:40:17;;;;;;;90.68;68.50;;;;;;;;;;5040959;28;20211;-91
2021/07/23 17:43:21;;;;;;;14.80;11.57;;;;;;;;;;5052376;28;20286;-90
2021/07/23 17:46:25;;;;;;;10.90;8.82;;;;;;;;;;5021525;28;20188;-91
2021/07/23 17:49:30;;;;;;;16.90;10.98;;;;;;;;;;5033264;28;20203;-91
2021/07/23 17:52:34;;;;;;;9.38;7.97;;;;;;;;;;5010162;28;20193;-91
2021/07/23 17:55:38;;;;;;;9.90;8.13;;;;;;;;;;5022356;28;20185;-88
2021/07/23 17:58:43;;;;;;;11.93;8.25;;;;;;;;;;5010164;28;20177;-88
2021/07/23 18:01:47;;;;;;;10.48;7.57;;;;;;;;;;5010099;28;20222;-88
2021/07/23 18:04:51;;;;;;;9.25;7.88;;;;;;;;;;5023477;28;21299;-87
2021/07/23 18:07:56;;;;;;;9.77;7.67;;;;;;;;;;5040620;28;20679;-87
2021/07/23 18:11:00;;;;;;;15.93;8.32;;;;;;;;;;5027426;28;20544;-88
2021/07/23 18:14:04;;;;;;;19.63;9.17;;;;;;;;;;5021224;28;20223;-89
2021/07/23 18:17:08;;;;;;;48.90;9.47;;;;;;;;;;5021220;28;20633;-87